KCRW

Yeager Airport

Charleston, West Virginia, USA
METAR KCRW 140436Z 33004KT 10SM OVC033 02/M01 A3038 RMK AO2 T00171006
Observed Flight Rules
Nov-14 @ 04:36 UTC (20 minutes ago) Visual Flight Rules
Wind Visibility Clouds
330° at 4 knots 10 miles
  • Overcast at 3,300' AGL
Temperatures Readings
Current 2°C / 36°F
Dewpoint -1°C / 30°F
Humidity 81%
Altimeter 30.38" Hg
Pressure 1029 hPa
Elevation 309
METAR KCRW 140436Z 33004KT 10SM OVC033 02/M01 A3038 RMK AO2 T00171006
Observed Flight Rules
Nov-14 @ 04:36 UTC
(20 minutes ago)
VFR
Wind Visibility
330° at 4 knots 10 miles
Clouds
  • Overcast at 3,300' AGL
Temperature Dewpoint
2°C / 36°F -1°C / 30°F
Humidity Altimeter Pressure
81% 30.38" Hg 1029 hPa